Time;durP1;ratioP1;P1;durP2;ratioP2;P2;SDS_P1;SDS_P2;PMS_P1;PMS_P2;Temp;Humidity;BMP_temperature;BMP_pressure;BME280_temperature;BME280_humidity;BME280_pressure;Samples;Min_cycle;Max_cycle;Signal;HPM_P1;HPM_P2
2022/06/20 00:01:35;;;;;;;1.20;0.90;;;26.50;65.10;;;;;;5015621;28;20450;-84
2022/06/20 00:04:02;;;;;;;0.90;0.60;;;26.50;65.20;;;;;;5015553;28;20443;-84
2022/06/20 00:06:30;;;;;;;1.23;1.10;;;26.50;65.20;;;;;;5015717;28;20935;-87
2022/06/20 00:08:57;;;;;;;1.00;0.80;;;26.50;65.30;;;;;;5015528;28;20806;-87
2022/06/20 00:11:28;;;;;;;1.00;0.80;;;26.50;65.20;;;;;;5015463;28;20439;-84
2022/06/20 00:13:56;;;;;;;1.17;0.73;;;26.50;65.20;;;;;;5015361;28;20479;-85
2022/06/20 00:16:24;;;;;;;1.07;0.80;;;26.50;65.10;;;;;;5015561;28;20539;-85
2022/06/20 00:18:52;;;;;;;2.37;0.80;;;26.50;65.10;;;;;;5015439;28;20706;-84
2022/06/20 00:21:22;;;;;;;1.10;0.90;;;26.40;65.10;;;;;;5015243;28;20546;-83
2022/06/20 00:23:51;;;;;;;1.20;0.83;;;26.50;65.20;;;;;;5014263;28;21010;-84
2022/06/20 00:26:19;;;;;;;1.67;0.90;;;26.50;65.10;;;;;;5015064;28;20943;-84
2022/06/20 00:28:48;;;;;;;0.90;0.73;;;26.40;65.10;;;;;;5015452;28;20443;-84
2022/06/20 00:31:16;;;;;;;1.07;0.73;;;26.50;65.10;;;;;;5014978;28;20447;-85
2022/06/20 00:33:43;;;;;;;1.00;0.70;;;26.50;65.10;;;;;;5014958;28;21077;-84
2022/06/20 00:36:10;;;;;;;1.00;0.70;;;26.50;65.10;;;;;;5015050;28;20444;-85
2022/06/20 00:38:37;;;;;;;1.20;0.80;;;26.50;65.10;;;;;;5014993;28;20535;-85
2022/06/20 00:41:12;;;;;;;1.10;0.80;;;26.50;65.10;;;;;;5014914;28;20447;-85
2022/06/20 00:43:42;;;;;;;1.00;0.80;;;26.50;65.10;;;;;;5014951;28;20441;-85
2022/06/20 00:46:13;;;;;;;0.90;0.70;;;26.50;65.90;;;;;;5015139;28;20945;-85
2022/06/20 00:48:46;;;;;;;1.00;0.70;;;26.50;65.20;;;;;;5014583;28;20631;-89
2022/06/20 00:51:19;;;;;;;0.90;0.70;;;26.50;65.20;;;;;;5014851;28;20535;-85
2022/06/20 00:53:51;;;;;;;1.30;0.90;;;26.50;66.00;;;;;;5014615;28;21076;-83
2022/06/20 00:56:28;;;;;;;1.00;0.70;;;26.50;65.10;;;;;;5014737;28;20447;-85
2022/06/20 00:59:00;;;;;;;1.00;0.70;;;26.50;65.20;;;;;;5014692;28;20446;-83
2022/06/20 01:01:38;;;;;;;1.20;0.80;;;26.50;65.10;;;;;;5014599;28;20448;-84
2022/06/20 01:04:10;;;;;;;0.90;0.70;;;26.50;65.20;;;;;;5014791;28;20526;-84
2022/06/20 01:06:43;;;;;;;1.10;0.90;;;26.40;65.00;;;;;;5014397;28;20968;-85
2022/06/20 01:09:13;;;;;;;1.10;0.90;;;26.40;65.10;;;;;;5014666;28;20792;-85
2022/06/20 01:11:47;;;;;;;1.00;0.70;;;26.40;65.20;;;;;;5014367;28;20546;-85
2022/06/20 01:14:23;;;;;;;0.90;0.67;;;26.40;65.10;;;;;;5014300;28;21032;-85
2022/06/20 01:16:53;;;;;;;1.10;0.80;;;26.50;65.40;;;;;;5014258;28;20889;-86
2022/06/20 01:19:45;;;;;;;0.90;0.70;;;26.40;65.20;;;;;;5014355;28;20534;-85
2022/06/20 01:22:26;;;;;;;1.07;0.97;;;26.40;65.20;;;;;;5014121;28;20859;-85
2022/06/20 01:25:02;;;;;;;1.00;0.70;;;26.40;65.20;;;;;;5014486;28;20461;-84
2022/06/20 01:27:35;;;;;;;0.90;0.70;;;26.40;65.20;;;;;;5014024;28;20986;-85
2022/06/20 01:30:03;;;;;;;1.13;0.90;;;26.40;65.20;;;;;;5014189;28;20446;-84
2022/06/20 01:32:31;;;;;;;1.00;0.80;;;26.40;65.30;;;;;;5014096;28;20519;-84
2022/06/20 01:35:00;;;;;;;1.00;0.70;;;26.40;65.20;;;;;;5013931;28;20483;-84
2022/06/20 01:37:28;;;;;;;0.90;0.60;;;26.40;65.20;;;;;;5013956;28;20475;-88
2022/06/20 01:40:02;;;;;;;1.40;0.83;;;26.40;65.20;;;;;;5014057;28;20455;-84
2022/06/20 01:42:31;;;;;;;0.90;0.70;;;26.40;65.30;;;;;;5013839;28;20457;-84
2022/06/20 01:45:02;;;;;;;1.00;0.70;;;26.40;65.30;;;;;;5013955;28;20475;-85
2022/06/20 01:47:29;;;;;;;1.00;0.80;;;26.40;65.30;;;;;;5013791;28;20471;-86
2022/06/20 01:50:01;;;;;;;1.10;0.70;;;26.40;65.30;;;;;;5013766;28;20444;-85
2022/06/20 01:52:31;;;;;;;1.00;0.77;;;26.40;65.30;;;;;;5013677;28;20443;-84
2022/06/20 01:55:02;;;;;;;1.00;0.80;;;26.40;65.30;;;;;;5013597;28;20495;-85
2022/06/20 01:57:32;;;;;;;0.97;0.70;;;26.40;65.30;;;;;;5013979;28;20456;-85
2022/06/20 02:00:02;;;;;;;1.03;0.70;;;26.40;65.30;;;;;;5013516;28;20435;-85
2022/06/20 02:02:34;;;;;;;1.10;0.80;;;26.40;65.40;;;;;;5013532;28;20440;-85
2022/06/20 02:05:04;;;;;;;1.53;1.07;;;26.40;65.40;;;;;;5013700;28;20603;-85
2022/06/20 02:07:32;;;;;;;0.90;0.60;;;26.40;65.30;;;;;;5013672;28;20539;-85
2022/06/20 02:10:00;;;;;;;0.90;0.70;;;26.40;65.40;;;;;;5013540;28;20526;-85
2022/06/20 02:12:31;;;;;;;1.00;0.87;;;26.40;65.30;;;;;;5013555;28;20447;-85
2022/06/20 02:15:00;;;;;;;1.00;0.77;;;26.40;65.40;;;;;;5013530;28;20588;-85
2022/06/20 02:17:32;;;;;;;1.00;0.70;;;26.40;65.40;;;;;;5013424;28;20477;-85
2022/06/20 02:20:02;;;;;;;0.90;0.73;;;26.40;65.40;;;;;;5013260;28;20542;-88
2022/06/20 02:22:31;;;;;;;0.90;0.60;;;26.40;65.40;;;;;;5013575;28;20439;-84
2022/06/20 02:25:03;;;;;;;1.53;0.70;;;26.40;65.40;;;;;;5013467;28;20450;-88
2022/06/20 02:27:33;;;;;;;1.40;0.90;;;26.40;65.50;;;;;;5013065;28;20480;-85
2022/06/20 02:30:02;;;;;;;0.97;0.77;;;26.40;65.40;;;;;;5013391;28;20439;-84
2022/06/20 02:32:33;;;;;;;0.97;0.70;;;26.40;65.40;;;;;;5013388;28;20436;-85
2022/06/20 02:35:00;;;;;;;1.30;0.70;;;26.40;65.40;;;;;;5013070;28;20487;-84
2022/06/20 02:37:28;;;;;;;0.90;0.67;;;26.40;65.40;;;;;;5013446;28;21093;-85
2022/06/20 02:39:58;;;;;;;0.90;0.70;;;26.40;65.40;;;;;;5014044;28;20454;-85
2022/06/20 02:42:29;;;;;;;1.00;0.80;;;26.40;65.50;;;;;;5013902;28;20443;-85
2022/06/20 02:44:57;;;;;;;0.90;0.70;;;26.40;65.50;;;;;;5013207;28;20800;-85
2022/06/20 02:47:27;;;;;;;1.00;0.70;;;26.40;65.40;;;;;;5015538;28;20463;-85
2022/06/20 02:49:57;;;;;;;1.00;0.80;;;26.40;65.40;;;;;;5017099;28;20439;-85
2022/06/20 02:52:32;;;;;;;0.90;0.60;;;26.30;65.40;;;;;;5016969;28;20857;-85
2022/06/20 02:55:00;;;;;;;1.00;0.73;;;26.40;65.50;;;;;;5016906;28;20494;-85
2022/06/20 02:57:34;;;;;;;0.90;0.60;;;26.40;65.40;;;;;;5016921;28;20531;-85
2022/06/20 03:00:02;;;;;;;0.90;0.70;;;26.40;65.50;;;;;;5016936;28;20439;-88
2022/06/20 03:02:36;;;;;;;1.57;0.80;;;26.30;65.40;;;;;;5016739;28;20550;-85
2022/06/20 03:05:03;;;;;;;1.00;0.90;;;26.40;65.50;;;;;;5016753;28;20934;-85
2022/06/20 03:07:36;;;;;;;1.00;0.60;;;26.30;65.40;;;;;;5016643;28;20451;-85
2022/06/20 03:10:15;;;;;;;1.00;0.67;;;26.40;65.50;;;;;;5016691;28;20533;-85
2022/06/20 03:12:42;;;;;;;1.37;0.90;;;26.40;65.40;;;;;;5016831;28;20451;-85
2022/06/20 03:15:10;;;;;;;0.90;0.70;;;26.30;65.40;;;;;;5016574;28;20844;-85
2022/06/20 03:17:41;;;;;;;1.00;0.70;;;26.40;65.40;;;;;;5016471;28;20486;-85
2022/06/20 03:20:11;;;;;;;1.00;0.80;;;26.40;65.40;;;;;;5016430;28;20436;-85
2022/06/20 03:22:46;;;;;;;1.10;0.90;;;26.40;65.40;;;;;;5016547;28;20466;-85
2022/06/20 03:25:15;;;;;;;0.90;0.70;;;26.30;65.40;;;;;;5016448;28;20453;-89
2022/06/20 03:27:44;;;;;;;0.90;0.70;;;26.40;65.50;;;;;;5016153;28;20471;-85
2022/06/20 03:30:27;;;;;;;0.90;0.70;;;26.40;65.50;;;;;;5016440;28;20443;-85
2022/06/20 03:32:57;;;;;;;1.07;0.70;;;26.40;65.40;;;;;;5016377;28;20535;-85
2022/06/20 03:35:26;;;;;;;1.00;0.70;;;26.30;65.40;;;;;;5016102;28;20489;-85
2022/06/20 03:37:53;;;;;;;1.00;0.70;;;26.30;65.40;;;;;;5016236;28;20443;-85
2022/06/20 03:40:20;;;;;;;1.00;0.80;;;26.30;65.40;;;;;;5015912;28;20494;-85
2022/06/20 03:42:47;;;;;;;1.00;0.80;;;26.30;65.30;;;;;;5016083;28;20450;-89
2022/06/20 03:45:15;;;;;;;1.10;0.90;;;26.40;65.50;;;;;;5016053;28;20444;-84
2022/06/20 03:47:46;;;;;;;1.00;0.70;;;26.30;65.30;;;;;;5015907;28;20469;-85
2022/06/20 03:50:19;;;;;;;1.00;0.70;;;26.40;65.40;;;;;;5015966;28;20446;-85
2022/06/20 03:52:51;;;;;;;1.13;0.80;;;26.30;65.30;;;;;;5015960;28;20439;-85
2022/06/20 03:55:26;;;;;;;1.00;0.73;;;26.30;65.30;;;;;;5015853;28;20487;-85
2022/06/20 03:57:57;;;;;;;1.00;0.70;;;26.30;65.30;;;;;;5014894;28;20444;-85
2022/06/20 04:00:35;;;;;;;0.97;0.70;;;26.30;65.30;;;;;;5015705;28;20443;-85
2022/06/20 04:03:07;;;;;;;1.00;0.80;;;26.40;65.40;;;;;;5015794;28;20946;-85
2022/06/20 04:05:43;;;;;;;0.90;0.70;;;26.30;65.30;;;;;;5015687;28;20436;-83
2022/06/20 04:08:15;;;;;;;1.00;0.67;;;26.30;65.30;;;;;;5015627;28;20435;-84
2022/06/20 04:11:00;;;;;;;0.90;0.67;;;26.30;65.40;;;;;;5015513;28;20451;-84
2022/06/20 04:13:33;;;;;;;1.03;0.90;;;26.40;65.40;;;;;;5015473;28;20439;-88
2022/06/20 04:16:05;;;;;;;0.93;0.70;;;26.30;65.30;;;;;;5015423;28;20491;-84
2022/06/20 04:18:36;;;;;;;1.03;0.80;;;26.30;65.30;;;;;;5015442;28;20476;-84
2022/06/20 04:21:21;;;;;;;1.00;0.70;;;26.30;65.30;;;;;;5015287;28;20451;-84
2022/06/20 04:23:55;;;;;;;1.10;0.80;;;26.30;65.30;;;;;;5015288;28;20462;-84
2022/06/20 04:26:29;;;;;;;0.90;0.70;;;26.30;65.30;;;;;;5015057;28;20558;-89
2022/06/20 04:29:00;;;;;;;1.00;0.80;;;26.30;65.30;;;;;;5015132;28;20440;-85
2022/06/20 04:31:38;;;;;;;0.90;0.70;;;26.30;65.30;;;;;;5015237;28;20432;-86
2022/06/20 04:34:14;;;;;;;0.90;0.70;;;26.30;65.30;;;;;;5015212;28;20431;-85
2022/06/20 04:36:52;;;;;;;1.00;0.77;;;26.30;65.30;;;;;;5015376;28;20451;-85
2022/06/20 04:39:23;;;;;;;0.90;0.60;;;26.30;65.30;;;;;;5015070;28;20514;-85
2022/06/20 04:41:54;;;;;;;0.90;0.60;;;26.30;65.30;;;;;;5014766;28;20930;-85
2022/06/20 04:44:28;;;;;;;0.90;0.70;;;26.30;65.30;;;;;;5014779;28;20450;-85
2022/06/20 04:47:07;;;;;;;1.00;0.67;;;26.30;65.30;;;;;;5015069;28;20554;-84
2022/06/20 04:49:35;;;;;;;0.90;0.60;;;26.30;65.30;;;;;;5014516;28;20534;-85
2022/06/20 04:52:03;;;;;;;1.00;0.80;;;26.30;65.30;;;;;;5014617;28;20939;-85
2022/06/20 04:54:31;;;;;;;0.90;0.80;;;26.30;65.30;;;;;;5014733;28;20526;-84
2022/06/20 04:56:57;;;;;;;0.90;0.70;;;26.30;65.30;;;;;;5014683;28;20534;-84
2022/06/20 04:59:29;;;;;;;1.00;0.70;;;26.30;65.30;;;;;;5014596;28;20797;-85
2022/06/20 05:01:59;;;;;;;0.90;0.60;;;26.30;65.20;;;;;;5014626;28;20804;-84
2022/06/20 05:04:31;;;;;;;0.87;0.60;;;26.30;65.30;;;;;;5014633;28;20447;-88
2022/06/20 05:07:01;;;;;;;1.10;0.83;;;26.30;65.30;;;;;;5014527;28;20439;-84
2022/06/20 05:09:36;;;;;;;0.90;0.60;;;26.30;65.40;;;;;;5014275;28;20939;-84
2022/06/20 05:12:11;;;;;;;0.90;0.80;;;26.30;66.10;;;;;;5014279;28;20447;-85
2022/06/20 05:14:44;;;;;;;1.00;0.70;;;26.30;65.30;;;;;;5014338;28;20477;-88
2022/06/20 05:17:18;;;;;;;1.63;0.80;;;26.30;65.30;;;;;;5014348;28;20467;-89
2022/06/20 05:19:49;;;;;;;1.03;0.63;;;26.30;65.30;;;;;;5014331;28;20440;-85
2022/06/20 05:22:20;;;;;;;1.10;1.00;;;26.30;65.30;;;;;;5014233;28;20443;-85
2022/06/20 05:24:50;;;;;;;1.00;0.90;;;26.30;65.30;;;;;;5014235;28;20444;-84
2022/06/20 05:27:20;;;;;;;0.90;0.67;;;26.30;65.30;;;;;;5013873;28;20472;-85
2022/06/20 05:29:50;;;;;;;0.93;0.70;;;26.30;65.30;;;;;;5014108;28;20439;-84
2022/06/20 05:32:24;;;;;;;3.10;1.27;;;26.30;65.30;;;;;;5014100;28;20530;-84
2022/06/20 05:34:55;;;;;;;1.23;0.83;;;26.30;65.30;;;;;;5013955;28;20513;-89
2022/06/20 05:37:30;;;;;;;1.00;0.73;;;26.30;65.40;;;;;;5014145;28;20446;-84
2022/06/20 05:40:02;;;;;;;0.90;0.60;;;26.20;66.30;;;;;;5013892;28;20447;-84
2022/06/20 05:42:29;;;;;;;0.90;0.70;;;26.30;65.40;;;;;;5014003;28;20451;-90
2022/06/20 05:44:57;;;;;;;1.00;0.80;;;26.30;65.40;;;;;;5014032;28;20470;-88
2022/06/20 05:47:27;;;;;;;1.10;0.70;;;26.30;65.30;;;;;;5013604;28;20554;-84
2022/06/20 05:50:00;;;;;;;1.00;0.67;;;26.30;65.30;;;;;;5013744;28;20449;-84
2022/06/20 05:52:30;;;;;;;1.00;0.70;;;26.30;65.30;;;;;;5013932;28;20856;-85
2022/06/20 05:55:03;;;;;;;1.00;0.70;;;26.30;65.70;;;;;;5013899;28;20793;-87
2022/06/20 05:57:31;;;;;;;1.00;0.70;;;26.30;65.30;;;;;;5014046;28;20466;-84
2022/06/20 06:00:01;;;;;;;1.27;1.00;;;26.30;65.30;;;;;;5013667;28;20452;-84
2022/06/20 06:02:33;;;;;;;1.00;0.70;;;26.30;65.30;;;;;;5013657;28;20523;-88
2022/06/20 06:05:08;;;;;;;0.90;0.60;;;26.30;65.30;;;;;;5013670;28;20467;-88
2022/06/20 06:07:41;;;;;;;1.00;0.80;;;26.20;65.30;;;;;;5013661;28;20794;-84
2022/06/20 06:10:27;;;;;;;0.97;0.73;;;26.30;66.10;;;;;;5013484;28;20923;-84
2022/06/20 06:13:02;;;;;;;1.00;0.80;;;26.30;65.20;;;;;;5013341;28;20439;-85
2022/06/20 06:15:37;;;;;;;1.00;0.80;;;26.30;65.30;;;;;;5013536;28;20482;-85
2022/06/20 06:18:10;;;;;;;1.30;0.80;;;26.30;65.30;;;;;;5013399;28;20481;-89
2022/06/20 06:20:38;;;;;;;1.10;0.73;;;26.30;65.20;;;;;;5012980;28;20456;-84
2022/06/20 06:23:08;;;;;;;1.00;0.90;;;26.20;65.20;;;;;;5012886;28;20540;-84
2022/06/20 06:25:39;;;;;;;2.07;0.80;;;26.30;65.20;;;;;;5013509;28;21002;-84
2022/06/20 06:28:12;;;;;;;1.60;0.80;;;26.30;65.30;;;;;;5013185;28;20835;-84
2022/06/20 06:30:44;;;;;;;1.00;0.70;;;26.20;65.10;;;;;;5013344;28;20511;-89
2022/06/20 06:33:20;;;;;;;1.00;0.80;;;26.30;65.20;;;;;;5013203;28;20479;-84
2022/06/20 06:35:51;;;;;;;1.10;0.80;;;26.20;65.20;;;;;;5013337;28;20487;-84
2022/06/20 06:38:22;;;;;;;0.90;0.70;;;26.30;65.20;;;;;;5013216;28;20447;-84
2022/06/20 06:40:52;;;;;;;1.00;0.80;;;26.30;65.20;;;;;;5013077;28;20443;-84
2022/06/20 06:43:21;;;;;;;0.90;0.67;;;26.30;65.20;;;;;;5013080;28;20440;-84
2022/06/20 06:45:52;;;;;;;1.10;0.70;;;26.30;65.20;;;;;;5013263;28;20443;-90
2022/06/20 06:48:25;;;;;;;1.00;0.70;;;26.30;65.20;;;;;;5013022;28;20962;-84
2022/06/20 06:50:56;;;;;;;0.93;0.70;;;26.30;65.20;;;;;;5012866;28;20965;-84
2022/06/20 06:53:29;;;;;;;3.40;1.10;;;26.30;65.20;;;;;;5012674;28;20451;-85
2022/06/20 06:56:01;;;;;;;1.20;0.87;;;26.20;65.40;;;;;;5011499;28;20578;-84
2022/06/20 06:58:36;;;;;;;2.97;0.87;;;26.20;65.50;;;;;;5011387;28;20455;-84
2022/06/20 07:01:08;;;;;;;1.10;0.80;;;26.20;65.40;;;;;;5012442;28;20478;-88
2022/06/20 07:03:40;;;;;;;1.40;0.80;;;26.20;65.40;;;;;;5012341;28;20938;-84
2022/06/20 07:06:14;;;;;;;1.03;0.80;;;26.20;65.30;;;;;;5012509;28;20809;-85
2022/06/20 07:08:45;;;;;;;1.00;0.80;;;26.20;65.30;;;;;;5012657;28;20446;-84
2022/06/20 07:11:21;;;;;;;1.00;0.70;;;26.20;65.30;;;;;;5013172;28;20443;-88
2022/06/20 07:13:55;;;;;;;1.00;0.80;;;26.20;65.30;;;;;;5013118;28;20447;-85
2022/06/20 07:16:26;;;;;;;0.90;0.70;;;26.20;65.30;;;;;;5012817;28;20497;-84
2022/06/20 07:18:56;;;;;;;1.10;0.80;;;26.20;65.30;;;;;;5012940;28;20888;-84
2022/06/20 07:21:25;;;;;;;0.90;0.70;;;26.20;65.30;;;;;;5012849;28;20444;-84
2022/06/20 07:23:57;;;;;;;1.00;0.77;;;26.20;65.20;;;;;;5012756;28;20535;-84
2022/06/20 07:26:29;;;;;;;1.57;0.70;;;26.20;65.30;;;;;;5012653;28;20558;-84
2022/06/20 07:29:00;;;;;;;2.20;0.80;;;26.20;65.30;;;;;;5012884;28;20435;-84
2022/06/20 07:31:32;;;;;;;1.00;0.77;;;26.20;65.30;;;;;;5012918;28;20796;-84
2022/06/20 07:34:06;;;;;;;1.10;0.77;;;26.20;65.30;;;;;;5015828;28;20875;-84
2022/06/20 07:36:38;;;;;;;0.90;0.70;;;26.20;65.20;;;;;;5016292;28;20483;-85
2022/06/20 07:39:14;;;;;;;1.53;1.00;;;26.20;65.20;;;;;;5016201;28;20526;-85
2022/06/20 07:41:46;;;;;;;1.00;0.83;;;26.20;65.20;;;;;;5016123;28;20457;-84
2022/06/20 07:44:19;;;;;;;1.00;0.80;;;26.20;65.30;;;;;;5016114;28;20444;-84
2022/06/20 07:46:53;;;;;;;1.70;0.80;;;26.20;65.30;;;;;;5016114;28;20459;-84
2022/06/20 07:49:26;;;;;;;1.20;0.90;;;26.20;65.30;;;;;;5016123;28;20448;-85
2022/06/20 07:51:56;;;;;;;1.10;0.80;;;26.20;65.20;;;;;;5015806;28;20451;-84
2022/06/20 07:54:27;;;;;;;1.10;0.80;;;26.20;65.20;;;;;;5016010;28;20912;-85
2022/06/20 07:57:01;;;;;;;1.00;0.73;;;26.20;65.20;;;;;;5015937;28;20530;-84
2022/06/20 07:59:31;;;;;;;1.10;0.70;;;26.20;65.20;;;;;;5015846;28;20530;-84
2022/06/20 08:02:06;;;;;;;1.63;0.80;;;26.20;65.20;;;;;;5015753;28;20436;-89
2022/06/20 08:04:36;;;;;;;1.10;0.70;;;26.20;65.30;;;;;;5015953;28;20804;-84
2022/06/20 08:07:09;;;;;;;1.10;0.70;;;26.20;65.30;;;;;;5016068;28;20534;-88
2022/06/20 08:09:41;;;;;;;1.00;0.70;;;26.20;65.30;;;;;;5015635;28;20454;-84
2022/06/20 08:12:16;;;;;;;1.33;0.87;;;26.20;65.20;;;;;;5015626;28;20436;-85
2022/06/20 08:14:50;;;;;;;1.57;0.87;;;26.20;65.20;;;;;;5015558;28;20443;-85
2022/06/20 08:17:17;;;;;;;1.00;0.70;;;26.20;65.20;;;;;;5015452;28;20498;-84
2022/06/20 08:19:46;;;;;;;1.10;0.90;;;26.20;65.20;;;;;;5015461;28;20821;-89
2022/06/20 08:22:18;;;;;;;1.00;0.80;;;26.20;65.20;;;;;;5015384;28;20455;-84
2022/06/20 08:24:50;;;;;;;1.20;0.80;;;26.20;65.20;;;;;;5015416;28;20447;-84
2022/06/20 08:27:26;;;;;;;1.20;0.90;;;26.20;65.20;;;;;;5015200;28;20480;-84
2022/06/20 08:29:58;;;;;;;1.10;0.90;;;26.20;65.20;;;;;;5015196;28;20482;-85
2022/06/20 08:32:39;;;;;;;1.10;0.80;;;26.20;65.10;;;;;;5015346;28;20448;-86
2022/06/20 08:35:15;;;;;;;1.10;0.80;;;26.20;65.10;;;;;;5015423;28;21013;-84
2022/06/20 08:37:47;;;;;;;1.87;1.10;;;26.20;65.20;;;;;;5015057;28;20491;-90
2022/06/20 08:40:55;;;;;;;1.00;0.70;;;26.20;65.20;;;;;;5014884;28;20953;-83
2022/06/20 08:44:04;;;;;;;1.00;0.70;;;26.20;65.10;;;;;;5014971;28;20958;-90
2022/06/20 08:46:56;;;;;;;1.10;0.80;;;26.20;65.10;;;;;;5014886;28;20467;-90
2022/06/20 08:49:53;;;;;;;1.40;0.80;;;26.20;65.10;;;;;;5014871;28;20442;-84
2022/06/20 08:53:06;;;;;;;6.77;0.80;;;26.20;65.10;;;;;;5015115;28;20475;-84
2022/06/20 08:55:53;;;;;;;1.10;0.80;;;26.20;65.10;;;;;;5014558;28;20538;-84
2022/06/20 08:58:31;;;;;;;1.20;0.80;;;26.20;65.20;;;;;;5015090;28;20772;-91
2022/06/20 09:01:07;;;;;;;1.37;0.80;;;26.20;65.20;;;;;;5014507;28;20439;-84
2022/06/20 09:04:04;;;;;;;1.10;0.80;;;26.20;65.20;;;;;;5014722;28;20538;-84
2022/06/20 09:07:03;;;;;;;1.03;0.70;;;26.20;65.10;;;;;;5014622;28;20526;-84
2022/06/20 09:09:56;;;;;;;1.13;0.87;;;26.20;65.00;;;;;;5014502;28;20448;-90
2022/06/20 09:12:54;;;;;;;1.20;0.90;;;26.20;65.10;;;;;;5012188;28;20448;-85
2022/06/20 09:15:35;;;;;;;1.50;1.00;;;26.20;65.10;;;;;;5014456;28;20479;-91
2022/06/20 09:18:10;;;;;;;1.60;0.90;;;26.20;65.00;;;;;;5014176;28;20497;-90
2022/06/20 09:20:44;;;;;;;1.30;0.90;;;26.20;65.10;;;;;;5014286;28;20449;-84
2022/06/20 09:23:19;;;;;;;0.97;0.70;;;26.20;65.90;;;;;;5014334;28;20439;-84
2022/06/20 09:25:55;;;;;;;1.13;0.90;;;26.20;64.90;;;;;;5014291;28;20444;-90
2022/06/20 09:29:04;;;;;;;1.10;0.80;;;26.20;65.00;;;;;;5014158;28;20557;-89
2022/06/20 09:31:53;;;;;;;1.10;0.80;;;26.30;64.90;;;;;;5014223;28;20447;-84
2022/06/20 09:34:55;;;;;;;1.73;1.00;;;26.20;65.00;;;;;;5014134;28;20440;-90
2022/06/20 09:38:05;;;;;;;1.30;0.90;;;26.20;64.90;;;;;;5014043;28;20486;-84
2022/06/20 09:40:40;;;;;;;1.50;1.27;;;26.20;65.00;;;;;;5013899;28;20443;-84
2022/06/20 09:43:22;;;;;;;1.10;0.70;;;26.20;65.00;;;;;;5013883;28;20444;-84
2022/06/20 09:45:57;;;;;;;0.90;0.60;;;26.20;64.90;;;;;;5014041;28;20962;-84
2022/06/20 09:48:34;;;;;;;1.10;0.70;;;26.20;64.90;;;;;;5013689;28;20466;-89
2022/06/20 09:51:08;;;;;;;0.90;0.70;;;26.20;64.90;;;;;;5013809;28;20447;-84
2022/06/20 09:53:48;;;;;;;1.00;0.73;;;26.20;64.90;;;;;;5013676;28;20435;-90
2022/06/20 09:56:23;;;;;;;1.90;0.97;;;26.20;64.80;;;;;;5012791;28;20477;-85
2022/06/20 09:58:57;;;;;;;1.10;0.80;;;26.20;64.90;;;;;;5013699;28;20463;-90
2022/06/20 10:01:35;;;;;;;1.10;0.77;;;26.20;64.80;;;;;;5013634;28;20438;-84
2022/06/20 10:04:12;;;;;;;1.13;0.90;;;26.20;64.70;;;;;;5013507;28;20526;-90
2022/06/20 10:06:52;;;;;;;1.00;0.80;;;26.20;64.70;;;;;;5013666;28;20466;-85
2022/06/20 10:09:28;;;;;;;1.03;0.70;;;26.20;64.60;;;;;;5013664;28;20486;-84
2022/06/20 10:12:04;;;;;;;1.20;0.83;;;26.20;64.60;;;;;;5013452;28;20457;-84
2022/06/20 10:14:38;;;;;;;1.00;0.70;;;26.20;64.60;;;;;;5013463;28;20455;-84
2022/06/20 10:17:13;;;;;;;1.10;0.90;;;26.20;64.50;;;;;;5013275;28;20491;-84
2022/06/20 10:19:45;;;;;;;1.00;0.80;;;26.20;64.50;;;;;;5013372;28;20450;-85
2022/06/20 10:22:21;;;;;;;0.90;0.70;;;26.20;64.60;;;;;;5013674;28;20442;-91
2022/06/20 10:25:27;;;;;;;1.70;0.80;;;26.20;64.60;;;;;;5013352;28;20953;-90
2022/06/20 10:28:00;;;;;;;1.10;0.70;;;26.20;64.50;;;;;;4983294;28;20478;-84
2022/06/20 10:30:40;;;;;;;1.00;0.80;;;26.20;64.60;;;;;;5013411;28;20523;-84
2022/06/20 10:33:30;;;;;;;0.90;0.70;;;26.20;64.50;;;;;;5013231;28;20957;-90
2022/06/20 10:36:13;;;;;;;1.83;0.80;;;26.20;64.40;;;;;;5013380;28;20447;-84
2022/06/20 10:38:44;;;;;;;0.90;0.70;;;26.20;64.40;;;;;;5013319;28;20440;-84
2022/06/20 10:41:21;;;;;;;1.20;1.00;;;26.20;64.40;;;;;;5013165;28;20439;-84
2022/06/20 10:43:53;;;;;;;1.20;0.70;;;26.20;64.40;;;;;;5013103;28;20447;-84
2022/06/20 10:46:26;;;;;;;1.10;0.80;;;26.20;64.40;;;;;;5013266;28;20940;-84
2022/06/20 10:49:16;;;;;;;1.57;0.90;;;26.10;64.20;;;;;;5013189;28;20947;-84
2022/06/20 10:51:54;;;;;;;1.20;0.90;;;26.10;64.20;;;;;;5013236;28;20447;-84
2022/06/20 10:54:39;;;;;;;0.90;0.80;;;26.20;64.30;;;;;;5013192;28;20439;-83
2022/06/20 10:57:18;;;;;;;1.10;0.80;;;26.20;64.30;;;;;;5013006;28;21080;-84
2022/06/20 10:59:57;;;;;;;1.27;1.10;;;26.20;64.30;;;;;;5013123;28;20530;-84
2022/06/20 11:02:39;;;;;;;1.63;0.80;;;26.20;64.30;;;;;;5013028;28;20435;-84
2022/06/20 11:05:20;;;;;;;1.20;0.80;;;26.20;64.20;;;;;;5013148;28;20990;-85
2022/06/20 11:07:56;;;;;;;1.00;0.80;;;26.20;64.20;;;;;;5014426;28;20451;-84
2022/06/20 11:10:59;;;;;;;0.97;0.77;;;26.10;64.10;;;;;;5016763;28;20449;-91
2022/06/20 11:13:31;;;;;;;1.07;0.80;;;26.20;64.00;;;;;;5006611;28;20472;-90
2022/06/20 11:16:09;;;;;;;1.20;1.00;;;26.20;64.10;;;;;;5016656;28;20534;-84
2022/06/20 11:18:48;;;;;;;1.10;0.83;;;26.20;64.10;;;;;;5016462;28;20578;-90
2022/06/20 11:21:24;;;;;;;1.30;0.83;;;26.20;64.10;;;;;;5016421;28;20439;-85
2022/06/20 11:24:05;;;;;;;1.20;0.80;;;26.20;64.10;;;;;;5016557;28;20443;-85
2022/06/20 11:26:40;;;;;;;1.00;0.70;;;26.10;64.00;;;;;;5016337;28;20467;-84
2022/06/20 11:29:29;;;;;;;1.20;0.90;;;26.10;63.90;;;;;;5016370;28;20445;-90
2022/06/20 11:32:07;;;;;;;1.00;0.80;;;26.10;63.80;;;;;;5016505;28;20447;-84
2022/06/20 11:34:49;;;;;;;1.20;1.10;;;26.20;64.00;;;;;;5016527;28;20471;-84
2022/06/20 11:37:29;;;;;;;0.97;0.73;;;26.20;64.50;;;;;;5016230;28;20489;-85
2022/06/20 11:40:09;;;;;;;1.13;0.80;;;26.20;63.90;;;;;;5016075;28;20447;-84
2022/06/20 11:42:56;;;;;;;1.23;0.93;;;26.10;63.90;;;;;;5016286;28;20791;-84
2022/06/20 11:45:44;;;;;;;1.30;1.13;;;26.10;63.80;;;;;;5016170;28;20475;-85
2022/06/20 11:48:24;;;;;;;1.03;0.80;;;26.20;63.90;;;;;;5015876;28;20464;-85
2022/06/20 11:50:58;;;;;;;1.10;0.80;;;26.10;63.80;;;;;;5015963;28;20443;-84
2022/06/20 11:53:38;;;;;;;1.43;1.00;;;26.10;63.90;;;;;;5015907;28;20461;-91
2022/06/20 11:56:13;;;;;;;1.77;1.10;;;26.20;63.90;;;;;;5015992;28;20522;-84
2022/06/20 11:59:01;;;;;;;1.10;0.80;;;26.10;63.90;;;;;;5015617;28;20584;-85
2022/06/20 12:01:33;;;;;;;1.10;0.80;;;26.10;63.80;;;;;;5015549;28;20444;-84
2022/06/20 12:04:07;;;;;;;1.00;0.80;;;26.10;63.90;;;;;;5015894;28;20869;-85
2022/06/20 12:06:39;;;;;;;1.03;0.70;;;26.10;63.80;;;;;;5015705;28;20443;-85
2022/06/20 12:09:14;;;;;;;1.00;0.90;;;26.10;63.90;;;;;;5015728;28;20483;-84
2022/06/20 12:11:57;;;;;;;1.00;0.90;;;26.10;63.90;;;;;;5015536;28;20443;-85
2022/06/20 12:14:40;;;;;;;1.10;1.00;;;26.10;63.90;;;;;;5015565;28;20446;-85
2022/06/20 12:17:21;;;;;;;0.93;0.77;;;26.10;63.90;;;;;;5015338;28;20498;-91
2022/06/20 12:23:24;;;;;;;1.00;0.80;;;26.20;63.80;;;;;;5015616;28;20427;-84
2022/06/20 12:25:57;;;;;;;1.20;0.90;;;26.10;64.00;;;;;;5015417;28;20836;-85
2022/06/20 12:28:26;;;;;;;1.03;0.80;;;26.10;64.00;;;;;;5015259;28;20439;-84
2022/06/20 12:31:01;;;;;;;1.13;1.03;;;26.10;64.00;;;;;;5015104;28;20818;-84
2022/06/20 12:33:29;;;;;;;1.20;1.00;;;26.10;63.90;;;;;;5015359;28;20522;-84
2022/06/20 12:36:00;;;;;;;1.00;0.80;;;26.10;64.00;;;;;;5014991;28;20527;-85
2022/06/20 12:38:34;;;;;;;1.20;1.00;;;26.10;63.90;;;;;;5015110;28;21020;-90
2022/06/20 12:41:04;;;;;;;1.00;0.80;;;26.10;63.90;;;;;;5014953;28;20454;-86
2022/06/20 12:43:39;;;;;;;1.30;0.90;;;26.10;63.90;;;;;;5015004;28;20454;-86
2022/06/20 12:46:26;;;;;;;1.00;0.80;;;26.10;63.90;;;;;;5014974;28;20559;-84
2022/06/20 12:49:19;;;;;;;1.30;0.90;;;26.10;63.80;;;;;;5015040;28;20917;-91
2022/06/20 12:51:56;;;;;;;1.00;0.90;;;26.10;63.80;;;;;;5014972;28;20535;-91
2022/06/20 12:54:39;;;;;;;1.10;0.90;;;26.10;63.80;;;;;;5014886;28;20431;-84
2022/06/20 12:57:22;;;;;;;1.10;0.90;;;26.10;63.80;;;;;;5014719;28;20450;-85
2022/06/20 13:00:17;;;;;;;1.20;1.10;;;26.10;63.80;;;;;;5014750;28;20953;-90
2022/06/20 13:03:23;;;;;;;1.40;0.90;;;26.10;63.80;;;;;;5014790;28;20450;-85
2022/06/20 13:06:08;;;;;;;1.10;0.90;;;26.10;63.80;;;;;;5014658;28;20442;-84
2022/06/20 13:08:57;;;;;;;1.00;0.80;;;26.10;63.90;;;;;;5014568;28;20459;-85
2022/06/20 13:11:31;;;;;;;1.00;0.80;;;26.10;63.90;;;;;;5014495;28;20519;-83
2022/06/20 13:14:50;;;;;;;1.17;1.00;;;26.10;63.90;;;;;;5014514;28;20450;-84
2022/06/20 13:17:33;;;;;;;2.60;0.97;;;26.10;63.90;;;;;;4934854;29;20487;-84
2022/06/20 13:20:20;;;;;;;1.47;0.87;;;26.10;64.00;;;;;;5003580;28;20526;-90
2022/06/20 13:22:55;;;;;;;1.30;1.10;;;26.10;64.00;;;;;;5014503;28;20546;-84
2022/06/20 13:25:36;;;;;;;1.10;0.80;;;26.10;63.90;;;;;;5014503;28;20446;-84
2022/06/20 13:28:13;;;;;;;1.23;0.80;;;26.10;63.80;;;;;;5014080;28;20475;-84
2022/06/20 13:31:03;;;;;;;1.20;0.90;;;26.10;63.80;;;;;;5014346;28;21033;-90
2022/06/20 13:33:39;;;;;;;1.20;0.87;;;26.10;63.80;;;;;;5014079;28;20518;-84